createdAt,value
2019-05-28T00:00:03.085Z,16.55
2019-05-28T00:02:41.248Z,17.35
2019-05-28T00:05:18.039Z,16.57
2019-05-28T00:07:54.169Z,17.15
2019-05-28T00:10:30.125Z,18.25
2019-05-28T00:13:06.490Z,17.40
2019-05-28T00:15:43.080Z,17.70
2019-05-28T00:18:19.124Z,18.15
2019-05-28T00:20:55.169Z,18.30
2019-05-28T00:23:31.336Z,18.60
2019-05-28T00:26:07.503Z,17.12
2019-05-28T00:28:43.655Z,18.02
2019-05-28T00:31:19.614Z,17.98
2019-05-28T00:33:55.872Z,17.73
2019-05-28T00:36:32.032Z,17.20
2019-05-28T00:39:08.604Z,18.00
2019-05-28T00:41:44.675Z,18.00
2019-05-28T00:44:20.723Z,17.73
2019-05-28T00:46:57.189Z,17.30
2019-05-28T00:49:34.186Z,17.48
2019-05-28T00:52:10.225Z,18.20
2019-05-28T00:54:46.289Z,17.67
2019-05-28T00:57:23.264Z,16.57
2019-05-28T00:59:59.781Z,16.73
2019-05-28T01:02:35.796Z,16.37
2019-05-28T01:05:12.789Z,16.77
2019-05-28T01:07:48.840Z,17.37
2019-05-28T01:10:24.794Z,17.40
2019-05-28T01:13:00.850Z,17.85
2019-05-28T01:15:37.115Z,17.55
2019-05-28T01:18:13.172Z,17.12
2019-05-28T01:20:49.138Z,16.90
2019-05-28T01:23:25.185Z,17.62
2019-05-28T01:26:01.359Z,17.50
2019-05-28T01:28:37.432Z,17.05
2019-05-28T01:31:13.376Z,17.35
2019-05-28T01:33:49.432Z,16.97
2019-05-28T01:36:25.792Z,15.50
2019-05-28T01:39:02.168Z,15.93
2019-05-28T01:41:39.556Z,16.42
2019-05-28T01:44:15.646Z,16.65
2019-05-28T01:46:52.076Z,15.65
2019-05-28T01:49:28.028Z,14.95
2019-05-28T01:52:05.122Z,14.13
2019-05-28T01:54:41.092Z,11.50
2019-05-28T01:57:17.237Z,12.10
2019-05-28T01:59:53.283Z,12.07
2019-05-28T02:02:29.259Z,12.35
2019-05-28T02:05:10.400Z,11.93
2019-05-28T02:07:46.431Z,13.00
2019-05-28T02:10:22.461Z,13.05
2019-05-28T02:12:58.396Z,12.25
2019-05-28T02:15:34.456Z,12.03
2019-05-28T02:18:10.619Z,11.83
2019-05-28T02:20:46.520Z,12.20
2019-05-28T02:23:22.631Z,12.37
2019-05-28T02:25:58.688Z,11.40
2019-05-28T02:28:34.751Z,11.75
2019-05-28T02:31:10.907Z,12.40
2019-05-28T02:33:47.134Z,12.10
2019-05-28T02:36:24.985Z,10.95
2019-05-28T02:39:01.434Z,11.28
2019-05-28T02:41:39.231Z,11.50
2019-05-28T02:44:15.411Z,11.85
2019-05-28T02:46:51.473Z,11.10
2019-05-28T02:49:27.410Z,11.78
2019-05-28T02:52:04.615Z,12.10
2019-05-28T02:54:40.878Z,11.57
2019-05-28T02:57:18.274Z,11.05
2019-05-28T02:59:55.843Z,11.10
2019-05-28T03:02:33.870Z,10.90
2019-05-28T03:05:10.126Z,10.80
2019-05-28T03:07:48.495Z,11.15
2019-05-28T03:11:00.194Z,10.50
2019-05-28T03:13:13.971Z,11.12
2019-05-28T03:15:52.115Z,11.12
2019-05-28T03:18:29.257Z,10.15
2019-05-28T03:21:06.439Z,10.98
2019-05-28T03:23:44.252Z,10.53
2019-05-28T03:26:23.452Z,10.75
2019-05-28T03:28:58.398Z,10.40
2019-05-28T03:31:34.361Z,10.35
2019-05-28T03:34:10.311Z,10.23
2019-05-28T03:36:47.566Z,11.12
2019-05-28T03:39:25.065Z,12.13
2019-05-28T03:42:01.048Z,12.28
2019-05-28T03:44:37.035Z,11.40
2019-05-28T03:47:13.272Z,12.80
2019-05-28T03:49:49.327Z,11.95
2019-05-28T03:52:25.594Z,12.78
2019-05-28T03:55:01.653Z,13.18
2019-05-28T03:57:37.719Z,12.80
2019-05-28T04:00:14.078Z,12.30
2019-05-28T04:02:50.034Z,12.55
2019-05-28T04:05:26.190Z,11.68
2019-05-28T04:08:02.295Z,11.22
2019-05-28T04:10:38.319Z,10.48
2019-05-28T04:13:14.301Z,9.38
2019-05-28T04:15:50.343Z,9.28
2019-05-28T04:18:26.749Z,8.50
2019-05-28T04:21:02.754Z,7.45
2019-05-28T04:23:41.630Z,7.03
2019-05-28T04:26:16.415Z,6.62
2019-05-28T04:28:52.340Z,5.60
2019-05-28T04:31:28.215Z,5.70
2019-05-28T04:34:04.170Z,4.95
2019-05-28T04:36:40.187Z,5.40
2019-05-28T04:39:16.273Z,4.70
2019-05-28T04:41:52.294Z,4.97
2019-05-28T04:44:28.300Z,4.70
2019-05-28T04:47:07.695Z,5.03
2019-05-28T04:49:41.870Z,4.62
2019-05-28T04:52:18.005Z,4.15
2019-05-28T04:54:53.966Z,4.50
2019-05-28T04:57:29.872Z,4.50
2019-05-28T05:00:09.523Z,4.47
2019-05-28T05:02:58.617Z,4.72
2019-05-28T05:05:23.030Z,4.80
2019-05-28T05:07:59.082Z,5.60
2019-05-28T05:10:35.060Z,4.97
2019-05-28T05:13:11.127Z,5.83
2019-05-28T05:15:47.397Z,5.87
2019-05-28T05:18:23.388Z,5.67
2019-05-28T05:20:59.323Z,6.75
2019-05-28T05:23:35.298Z,6.05
2019-05-28T05:26:11.174Z,6.10
2019-05-28T05:28:46.998Z,6.65
2019-05-28T05:31:23.000Z,6.72
2019-05-28T05:33:58.974Z,6.42
2019-05-28T05:36:34.900Z,6.45
2019-05-28T05:39:10.959Z,6.20
2019-05-28T05:41:46.984Z,6.35
2019-05-28T05:44:22.853Z,6.35
2019-05-28T05:46:58.857Z,5.92
2019-05-28T05:49:34.801Z,6.00
2019-05-28T05:52:10.962Z,6.28
2019-05-28T05:54:47.115Z,6.15
2019-05-28T05:57:23.111Z,6.00
2019-05-28T05:59:58.995Z,6.45
2019-05-28T06:02:35.085Z,6.75
2019-05-28T06:05:11.140Z,7.08
2019-05-28T06:07:47.253Z,6.75
2019-05-28T06:10:24.065Z,6.17
2019-05-28T06:13:00.141Z,6.42
2019-05-28T06:15:36.148Z,6.67
2019-05-28T06:18:12.117Z,7.10
2019-05-28T06:20:48.063Z,6.72
2019-05-28T06:23:24.172Z,7.17
2019-05-28T06:26:00.122Z,7.85
2019-05-28T06:28:36.129Z,6.90
2019-05-28T06:31:12.087Z,7.35
2019-05-28T06:33:56.710Z,7.85
2019-05-28T06:36:25.694Z,6.28
2019-05-28T06:39:01.610Z,6.80
2019-05-28T06:41:38.948Z,7.33
2019-05-28T06:44:14.898Z,6.97
2019-05-28T06:46:50.855Z,7.12
2019-05-28T06:49:28.140Z,7.28
2019-05-28T06:52:04.103Z,7.12
2019-05-28T06:54:40.154Z,7.22
2019-05-28T06:57:22.689Z,8.15
2019-05-28T06:59:54.130Z,8.20
2019-05-28T07:02:30.159Z,8.30
2019-05-28T07:05:07.754Z,8.18
2019-05-28T07:07:43.616Z,7.87
2019-05-28T07:10:19.774Z,8.10
2019-05-28T07:12:55.725Z,8.30
2019-05-28T07:15:31.680Z,8.70
2019-05-28T07:18:07.757Z,11.10
2019-05-28T07:20:43.883Z,10.10
2019-05-28T07:23:20.142Z,8.48
2019-05-28T07:25:56.325Z,9.70
2019-05-28T07:28:32.319Z,8.13
2019-05-28T07:31:08.716Z,8.08
2019-05-28T07:33:44.557Z,7.47
2019-05-28T07:36:20.517Z,8.35
2019-05-28T07:38:56.437Z,8.18
2019-05-28T07:41:32.414Z,9.38
2019-05-28T07:44:08.409Z,8.48
2019-05-28T07:46:44.306Z,9.63
2019-05-28T07:49:20.277Z,8.70
2019-05-28T07:51:56.516Z,8.93
2019-05-28T07:54:32.370Z,9.68
2019-05-28T07:57:08.746Z,9.20
2019-05-28T07:59:44.991Z,9.58
2019-05-28T08:02:20.999Z,9.40
2019-05-28T08:04:56.860Z,9.88
2019-05-28T08:07:32.781Z,10.03
2019-05-28T08:10:09.549Z,10.72
2019-05-28T08:12:45.510Z,9.80
2019-05-28T08:15:21.942Z,10.13
2019-05-28T08:17:57.922Z,9.65
2019-05-28T08:20:34.100Z,9.53
2019-05-28T08:23:10.060Z,9.68
2019-05-28T08:25:48.030Z,9.93
2019-05-28T08:28:24.659Z,9.33
2019-05-28T08:31:14.878Z,9.70
2019-05-28T08:33:38.553Z,9.98
2019-05-28T08:36:14.581Z,11.75
2019-05-28T08:38:50.523Z,11.10
2019-05-28T08:41:26.435Z,10.78
2019-05-28T08:44:02.413Z,9.80
2019-05-28T08:46:38.635Z,11.10
2019-05-28T08:49:14.558Z,11.18
2019-05-28T08:51:50.475Z,9.93
2019-05-28T08:54:26.368Z,15.32
2019-05-28T08:57:02.394Z,10.13
2019-05-28T08:59:38.429Z,10.72
2019-05-28T09:02:26.983Z,10.82
2019-05-28T09:04:52.206Z,13.78
2019-05-28T09:07:28.225Z,9.90
2019-05-28T09:10:06.718Z,11.63
2019-05-28T09:12:43.741Z,10.98
2019-05-28T09:15:19.576Z,14.98
2019-05-28T09:17:55.731Z,11.30
2019-05-28T09:20:31.626Z,13.60
2019-05-28T09:23:07.890Z,13.20
2019-05-28T09:25:44.469Z,14.28
2019-05-28T09:28:30.090Z,14.53
2019-05-28T09:30:58.330Z,14.43
2019-05-28T09:33:34.480Z,13.55
2019-05-28T09:36:10.758Z,14.75
2019-05-28T09:38:47.006Z,13.98
2019-05-28T09:41:23.072Z,15.25
2019-05-28T09:43:59.168Z,14.63
2019-05-28T09:46:35.392Z,13.90
2019-05-28T09:49:11.361Z,15.78
2019-05-28T09:51:47.495Z,14.45
2019-05-28T09:54:23.583Z,14.23
2019-05-28T09:56:59.563Z,13.98
2019-05-28T09:59:41.631Z,14.03
2019-05-28T10:02:14.889Z,14.20
2019-05-28T10:04:51.327Z,13.70
2019-05-28T10:07:27.659Z,13.83
2019-05-28T10:10:03.809Z,15.05
2019-05-28T10:12:40.071Z,14.35
2019-05-28T10:15:18.897Z,15.83
2019-05-28T10:17:54.855Z,15.98
2019-05-28T10:20:31.384Z,15.63
2019-05-28T10:23:07.492Z,16.25
2019-05-28T10:25:43.542Z,16.50
2019-05-28T10:28:19.715Z,15.90
2019-05-28T10:30:56.232Z,18.62
2019-05-28T10:33:32.341Z,19.40
2019-05-28T10:36:08.297Z,17.77
2019-05-28T10:38:44.257Z,18.60
2019-05-28T10:41:20.447Z,18.60
2019-05-28T10:43:56.666Z,19.02
2019-05-28T10:46:32.938Z,19.48
2019-05-28T10:49:08.902Z,18.65
2019-05-28T10:51:44.864Z,18.37
2019-05-28T10:54:21.321Z,19.62
2019-05-28T10:56:57.388Z,19.12
2019-05-28T10:59:33.637Z,20.02
2019-05-28T11:02:09.597Z,20.37
2019-05-28T11:04:45.570Z,19.65
2019-05-28T11:07:21.816Z,21.33
2019-05-28T11:09:57.803Z,21.77
2019-05-28T11:12:34.354Z,20.25
2019-05-28T11:15:11.973Z,22.50
2019-05-28T11:17:48.150Z,21.65
2019-05-28T11:20:24.847Z,18.82
2019-05-28T11:23:01.051Z,19.23
2019-05-28T11:25:37.191Z,18.67
2019-05-28T11:28:13.159Z,19.67
2019-05-28T11:30:49.479Z,21.37
2019-05-28T11:33:26.604Z,21.05
2019-05-28T11:36:02.568Z,21.40
2019-05-28T11:38:38.516Z,21.80
2019-05-28T11:41:14.581Z,21.35
2019-05-28T11:43:51.975Z,18.85
2019-05-28T11:46:28.034Z,16.62
2019-05-28T11:49:04.191Z,14.18
2019-05-28T11:51:40.248Z,15.48
2019-05-28T11:54:16.331Z,13.60
2019-05-28T11:56:52.669Z,9.70
2019-05-28T11:59:29.113Z,11.40
2019-05-28T12:02:05.957Z,10.32
2019-05-28T12:04:43.769Z,10.15
2019-05-28T12:07:26.082Z,10.45
2019-05-28T12:09:57.665Z,11.00
2019-05-28T12:12:35.377Z,13.50
2019-05-28T12:15:12.744Z,13.95
2019-05-28T12:17:48.828Z,14.68
2019-05-28T12:20:25.832Z,14.75
2019-05-28T12:23:10.918Z,11.48
2019-05-28T12:25:39.865Z,8.65
2019-05-28T12:28:15.814Z,9.43
2019-05-28T12:30:51.776Z,9.10
2019-05-28T12:33:28.257Z,8.58
2019-05-28T12:36:04.904Z,10.90
2019-05-28T12:38:40.975Z,9.43
2019-05-28T12:41:16.944Z,10.00
2019-05-28T12:43:52.986Z,12.58
2019-05-28T12:46:28.941Z,12.53
2019-05-28T12:49:05.202Z,10.15
2019-05-28T12:51:41.172Z,11.68
2019-05-28T12:54:17.334Z,14.28
2019-05-28T12:56:53.395Z,8.95
2019-05-28T12:59:29.468Z,12.35
2019-05-28T13:02:05.817Z,12.73
2019-05-28T13:04:41.875Z,11.12
2019-05-28T13:10:44.377Z,8.50
2019-05-28T13:13:20.336Z,6.40
2019-05-28T13:15:56.286Z,7.03
2019-05-28T13:18:32.335Z,5.58
2019-05-28T13:21:08.396Z,5.55
2019-05-28T13:23:44.701Z,5.58
2019-05-28T13:26:20.724Z,5.25
2019-05-28T13:28:58.216Z,4.95
2019-05-28T13:31:34.572Z,5.10
2019-05-28T13:34:11.773Z,4.90
2019-05-28T13:36:49.062Z,5.42
2019-05-28T13:39:25.020Z,5.30
2019-05-28T13:42:01.177Z,6.72
2019-05-28T13:44:38.359Z,5.47
2019-05-28T13:47:32.260Z,6.40
2019-05-28T13:49:52.013Z,5.47
2019-05-28T13:52:28.075Z,5.67
2019-05-28T13:55:05.567Z,5.42
2019-05-28T13:57:41.919Z,4.78
2019-05-28T14:00:19.332Z,4.90
2019-05-28T14:02:55.474Z,5.60
2019-05-28T14:05:31.641Z,4.60
2019-05-28T14:08:07.695Z,4.20
2019-05-28T14:10:44.061Z,4.55
2019-05-28T14:13:21.269Z,5.10
2019-05-28T14:15:57.603Z,4.55
2019-05-28T14:18:33.858Z,4.83
2019-05-28T14:21:09.826Z,5.20
2019-05-28T14:23:45.799Z,5.00
2019-05-28T14:26:21.749Z,5.30
2019-05-28T14:28:57.796Z,4.92
2019-05-28T14:31:33.895Z,4.80
2019-05-28T14:34:10.087Z,5.03
2019-05-28T14:37:17.795Z,5.33
2019-05-28T14:40:01.465Z,5.22
2019-05-28T14:42:40.123Z,5.53
2019-05-28T14:45:20.291Z,6.83
2019-05-28T14:48:02.411Z,5.12
2019-05-28T14:50:38.817Z,4.97
2019-05-28T14:53:14.874Z,4.62
2019-05-28T14:55:51.027Z,4.67
2019-05-28T14:58:27.169Z,4.15
2019-05-28T15:01:03.097Z,4.70
2019-05-28T15:03:39.212Z,4.55
2019-05-28T15:06:15.277Z,4.60
2019-05-28T15:08:51.256Z,4.75
2019-05-28T15:11:27.242Z,3.90
2019-05-28T15:14:03.229Z,4.70
2019-05-28T15:16:39.185Z,4.03
2019-05-28T15:19:15.157Z,3.87
2019-05-28T15:21:51.117Z,3.10
2019-05-28T15:24:27.282Z,5.12
2019-05-28T15:27:03.405Z,5.28
2019-05-28T15:29:40.594Z,5.50
2019-05-28T15:32:16.476Z,5.50
2019-05-28T15:34:52.363Z,4.70
2019-05-28T15:37:28.324Z,3.98
2019-05-28T15:40:10.020Z,3.33
2019-05-28T15:45:21.099Z,2.80
2019-05-28T15:47:57.128Z,2.92
2019-05-28T15:50:33.113Z,3.12
2019-05-28T15:53:09.116Z,3.22
2019-05-28T15:55:45.033Z,3.37
2019-05-28T15:58:20.975Z,4.20
2019-05-28T16:00:56.997Z,6.28
2019-05-28T16:03:33.046Z,7.55
2019-05-28T16:06:09.033Z,5.33
2019-05-28T16:08:45.074Z,4.17
2019-05-28T16:11:21.241Z,6.50
2019-05-28T16:13:57.467Z,7.10
2019-05-28T16:16:34.689Z,4.65
2019-05-28T16:19:10.850Z,6.10
2019-05-28T16:21:46.917Z,6.50
2019-05-28T16:24:22.957Z,7.70
2019-05-28T16:26:59.343Z,10.53
2019-05-28T16:29:35.257Z,10.05
2019-05-28T16:32:11.288Z,10.15
2019-05-28T16:34:47.153Z,10.30
2019-05-28T16:37:23.160Z,8.70
2019-05-28T16:40:14.009Z,5.70
2019-05-28T16:42:37.291Z,7.00
2019-05-28T16:45:15.057Z,5.92
2019-05-28T16:47:51.266Z,12.25
2019-05-28T16:50:27.224Z,4.47
2019-05-28T16:53:03.370Z,4.42
2019-05-28T16:55:41.932Z,4.80
2019-05-28T16:58:17.092Z,4.37
2019-05-28T17:00:53.019Z,6.00
2019-05-28T17:03:29.063Z,6.12
2019-05-28T17:06:05.210Z,7.37
2019-05-28T17:08:42.192Z,6.35
2019-05-28T17:11:18.200Z,6.80
2019-05-28T17:13:54.098Z,6.40
2019-05-28T17:16:30.103Z,6.35
2019-05-28T17:19:05.992Z,4.58
2019-05-28T17:21:42.070Z,4.90
2019-05-28T17:24:18.656Z,5.33
2019-05-28T17:26:54.741Z,5.20
2019-05-28T17:29:30.891Z,6.78
2019-05-28T17:32:06.947Z,6.75
2019-05-28T17:34:43.343Z,6.40
2019-05-28T17:37:19.260Z,8.38
2019-05-28T17:39:55.173Z,7.60
2019-05-28T17:42:31.617Z,5.08
2019-05-28T17:45:08.059Z,5.12
2019-05-28T17:47:44.502Z,6.80
2019-05-28T17:50:20.678Z,7.92
2019-05-28T17:52:56.683Z,9.95
2019-05-28T17:55:32.664Z,8.00
2019-05-28T17:58:08.549Z,6.75
2019-05-28T18:00:44.619Z,6.03
2019-05-28T18:03:20.830Z,6.60
2019-05-28T18:05:56.950Z,5.60
2019-05-28T18:08:33.075Z,4.83
2019-05-28T18:11:09.031Z,6.50
2019-05-28T18:13:46.345Z,5.92
2019-05-28T18:16:22.552Z,5.90
2019-05-28T18:19:00.761Z,6.42
2019-05-28T18:21:36.185Z,5.60
2019-05-28T18:24:12.171Z,7.42
2019-05-28T18:26:48.177Z,7.90
2019-05-28T18:29:24.292Z,6.87
2019-05-28T18:32:00.142Z,5.20
2019-05-28T18:34:36.097Z,6.53
2019-05-28T18:37:11.973Z,5.33
2019-05-28T18:39:48.039Z,5.05
2019-05-28T18:42:24.420Z,11.97
2019-05-28T18:45:00.374Z,6.65
2019-05-28T18:47:37.781Z,6.00
2019-05-28T18:50:14.167Z,4.80
2019-05-28T18:52:50.409Z,5.47
2019-05-28T18:55:26.482Z,7.58
2019-05-28T18:58:02.707Z,5.80
2019-05-28T19:00:38.990Z,6.97
2019-05-28T19:03:15.540Z,5.87
2019-05-28T19:05:51.559Z,5.17
2019-05-28T19:08:27.612Z,5.70
2019-05-28T19:11:04.458Z,4.75
2019-05-28T19:13:40.475Z,4.50
2019-05-28T19:16:16.501Z,5.50
2019-05-28T19:18:55.241Z,5.30
2019-05-28T19:21:30.083Z,4.83
2019-05-28T19:24:06.043Z,4.80
2019-05-28T19:26:41.990Z,5.30
2019-05-28T19:29:17.938Z,5.17
2019-05-28T19:31:54.427Z,5.03
2019-05-28T19:34:30.491Z,5.00
2019-05-28T19:37:06.526Z,5.30
2019-05-28T19:39:43.219Z,5.10
2019-05-28T19:42:19.222Z,5.55
2019-05-28T19:44:56.656Z,6.75
2019-05-28T19:47:32.847Z,5.58
2019-05-28T19:50:09.542Z,6.05
2019-05-28T19:52:45.691Z,5.83
2019-05-28T19:55:22.156Z,6.10
2019-05-28T19:57:58.113Z,7.62
2019-05-28T20:00:34.171Z,6.67
2019-05-28T20:03:10.342Z,7.17
2019-05-28T20:05:47.432Z,7.72
2019-05-28T20:08:23.366Z,6.33
2019-05-28T20:11:00.450Z,7.20
2019-05-28T20:13:36.507Z,6.75
2019-05-28T20:16:13.394Z,6.70
2019-05-28T20:18:49.453Z,7.00
2019-05-28T20:21:25.610Z,7.30
2019-05-28T20:24:02.182Z,7.60
2019-05-28T20:26:38.651Z,7.45
2019-05-28T20:29:14.806Z,7.22
2019-05-28T20:31:50.875Z,7.58
2019-05-28T20:34:26.926Z,7.30
2019-05-28T20:37:03.625Z,8.28
2019-05-28T20:39:39.912Z,7.25
2019-05-28T20:42:26.940Z,7.70
2019-05-28T20:44:53.625Z,7.83
2019-05-28T20:47:29.690Z,8.20
2019-05-28T20:50:09.625Z,8.40
2019-05-28T20:52:45.690Z,8.83
2019-05-28T20:55:21.951Z,8.53
2019-05-28T20:57:57.904Z,9.13
2019-05-28T21:00:35.053Z,8.33
2019-05-28T21:03:11.059Z,9.23
2019-05-28T21:05:48.419Z,9.53
2019-05-28T21:08:24.601Z,11.40
2019-05-28T21:11:00.700Z,10.98
2019-05-28T21:13:36.615Z,11.43
2019-05-28T21:16:12.686Z,10.68
2019-05-28T21:18:49.025Z,10.23
2019-05-28T21:21:25.110Z,10.82
2019-05-28T21:24:01.274Z,11.10
2019-05-28T21:26:37.329Z,12.05
2019-05-28T21:29:13.284Z,11.10
2019-05-28T21:31:50.480Z,10.78
2019-05-28T21:34:26.738Z,8.88
2019-05-28T21:37:05.661Z,9.68
2019-05-28T21:39:40.481Z,10.53
2019-05-28T21:42:16.448Z,10.15
2019-05-28T21:44:53.955Z,11.18
2019-05-28T21:47:30.092Z,9.85
2019-05-28T21:50:08.713Z,10.32
2019-05-28T21:52:44.667Z,8.98
2019-05-28T21:55:20.839Z,8.30
2019-05-28T21:57:57.736Z,8.35
2019-05-28T22:00:49.540Z,7.85
2019-05-28T22:06:01.485Z,6.60
2019-05-28T22:08:37.786Z,7.10
2019-05-28T22:11:13.982Z,6.92
2019-05-28T22:13:50.034Z,7.60
2019-05-28T22:16:26.105Z,7.80
2019-05-28T22:19:02.799Z,7.72
2019-05-28T22:21:38.826Z,7.97
2019-05-28T22:24:14.892Z,7.30
2019-05-28T22:26:50.948Z,7.87
2019-05-28T22:29:26.892Z,6.85
2019-05-28T22:32:02.962Z,7.00
2019-05-28T22:34:39.124Z,7.42
2019-05-28T22:37:15.192Z,7.35
2019-05-28T22:39:51.251Z,6.90
2019-05-28T22:42:27.406Z,6.92
2019-05-28T22:45:05.002Z,7.00
2019-05-28T22:47:41.266Z,7.60
2019-05-28T22:50:22.871Z,7.17
2019-05-28T22:52:55.971Z,7.30
2019-05-28T22:55:32.088Z,6.92
2019-05-28T22:58:08.636Z,6.35
2019-05-28T23:00:45.125Z,6.62
2019-05-28T23:03:21.087Z,5.62
2019-05-28T23:05:57.497Z,5.15
2019-05-28T23:08:34.016Z,5.65
2019-05-28T23:11:09.988Z,5.45
2019-05-28T23:13:47.215Z,5.90
2019-05-28T23:16:23.438Z,6.78
2019-05-28T23:19:00.424Z,7.17
2019-05-28T23:21:36.573Z,7.65
2019-05-28T23:24:12.651Z,7.80
2019-05-28T23:26:48.696Z,7.87
2019-05-28T23:29:24.755Z,7.90
2019-05-28T23:32:01.844Z,7.90
2019-05-28T23:34:37.887Z,6.90
2019-05-28T23:37:14.251Z,6.40
2019-05-28T23:39:51.648Z,5.72
2019-05-28T23:42:27.603Z,6.15
2019-05-28T23:45:03.881Z,5.75
2019-05-28T23:47:39.880Z,6.15
2019-05-28T23:50:18.181Z,6.55
2019-05-28T23:52:53.792Z,6.65
2019-05-28T23:55:29.856Z,7.22
2019-05-28T23:58:05.866Z,7.20
